createdAt,value
2022-10-18T00:00:17.111Z,9.30
2022-10-18T00:02:43.880Z,9.30
2022-10-18T00:05:10.835Z,9.30
2022-10-18T00:07:37.812Z,9.40
2022-10-18T00:10:05.565Z,9.30
2022-10-18T00:12:34.696Z,9.40
2022-10-18T00:15:02.196Z,9.60
2022-10-18T00:17:29.364Z,9.70
2022-10-18T00:19:56.436Z,9.20
2022-10-18T00:22:23.264Z,9.10
2022-10-18T00:24:50.199Z,9.20
2022-10-18T00:27:17.056Z,9.30
2022-10-18T00:29:43.836Z,9.00
2022-10-18T00:32:12.206Z,8.90
2022-10-18T00:34:40.323Z,8.90
2022-10-18T00:37:07.119Z,8.90
2022-10-18T00:39:34.543Z,8.80
2022-10-18T00:42:01.583Z,8.90
2022-10-18T00:44:28.309Z,9.10
2022-10-18T00:47:09.317Z,9.00
2022-10-18T00:49:40.652Z,8.90
2022-10-18T00:52:24.063Z,8.90
2022-10-18T00:54:52.112Z,8.90
2022-10-18T00:57:19.325Z,9.00
2022-10-18T00:59:46.940Z,9.10
2022-10-18T01:02:18.354Z,9.00
2022-10-18T01:04:46.728Z,8.70
2022-10-18T01:07:25.832Z,8.60
2022-10-18T01:10:19.038Z,8.80
2022-10-18T01:13:12.066Z,8.90
2022-10-18T01:16:03.081Z,8.70
2022-10-18T01:18:45.364Z,8.60
2022-10-18T01:21:21.121Z,8.70
2022-10-18T01:24:25.678Z,8.70
2022-10-18T01:27:10.884Z,8.60
2022-10-18T01:29:55.725Z,8.70
2022-10-18T01:32:27.988Z,8.80
2022-10-18T01:35:01.960Z,8.60
2022-10-18T01:37:31.593Z,8.50
2022-10-18T01:40:00.171Z,8.40
2022-10-18T01:42:27.612Z,8.40
2022-10-18T01:44:55.110Z,8.50
2022-10-18T01:47:22.776Z,8.50
2022-10-18T01:49:49.647Z,8.40
2022-10-18T01:52:16.962Z,8.40
2022-10-18T01:54:50.131Z,8.30
2022-10-18T01:57:20.812Z,8.40
2022-10-18T02:00:06.253Z,8.60
2022-10-18T02:02:35.967Z,8.60
2022-10-18T02:05:41.227Z,8.60
2022-10-18T02:08:33.120Z,8.70
2022-10-18T02:11:15.636Z,8.60
2022-10-18T02:13:53.335Z,8.50
2022-10-18T02:16:26.005Z,8.40
2022-10-18T02:19:00.163Z,8.50
2022-10-18T02:21:29.707Z,8.50
2022-10-18T02:23:59.182Z,8.50
2022-10-18T02:26:26.303Z,8.60
2022-10-18T02:28:53.097Z,8.60
2022-10-18T02:31:30.824Z,8.40
2022-10-18T02:34:02.487Z,8.30
2022-10-18T02:36:38.050Z,8.40
2022-10-18T02:39:14.430Z,8.40
2022-10-18T02:41:41.895Z,8.30
2022-10-18T02:44:09.105Z,8.40
2022-10-18T02:46:36.455Z,8.30
2022-10-18T02:49:03.680Z,8.40
2022-10-18T02:51:30.418Z,8.40
2022-10-18T02:53:57.181Z,8.30
2022-10-18T02:56:24.080Z,8.20
2022-10-18T02:58:50.844Z,8.20
2022-10-18T03:01:17.625Z,8.30
2022-10-18T03:03:44.484Z,8.40
2022-10-18T03:06:11.288Z,8.50
2022-10-18T03:08:38.275Z,8.50
2022-10-18T03:11:05.221Z,8.50
2022-10-18T03:13:34.207Z,8.40
2022-10-18T03:16:01.783Z,8.40
2022-10-18T03:18:28.533Z,8.30
2022-10-18T03:20:55.323Z,8.30
2022-10-18T03:23:22.213Z,8.20
2022-10-18T03:25:49.082Z,8.10
2022-10-18T03:28:16.134Z,8.10
2022-10-18T03:30:42.935Z,8.10
2022-10-18T03:33:10.094Z,8.10
2022-10-18T03:35:36.899Z,8.10
2022-10-18T03:38:03.972Z,7.90
2022-10-18T03:43:02.954Z,8.10
2022-10-18T03:45:31.370Z,8.20
2022-10-18T03:47:58.442Z,8.00
2022-10-18T03:50:25.265Z,8.00
2022-10-18T03:52:52.017Z,8.00
2022-10-18T03:55:18.800Z,8.00
2022-10-18T03:57:45.585Z,8.10
2022-10-18T04:00:12.851Z,8.20
2022-10-18T04:02:39.959Z,8.30
2022-10-18T04:05:07.675Z,8.20
2022-10-18T04:10:02.131Z,8.10
2022-10-18T04:12:29.099Z,8.10
2022-10-18T04:14:56.039Z,7.90
2022-10-18T04:17:22.834Z,7.80
2022-10-18T04:19:49.611Z,7.90
2022-10-18T04:22:16.434Z,8.00
2022-10-18T04:24:43.275Z,7.90
2022-10-18T04:27:10.154Z,7.80
2022-10-18T04:29:36.972Z,7.90
2022-10-18T04:32:03.857Z,7.90
2022-10-18T04:34:30.683Z,7.90
2022-10-18T04:36:57.552Z,7.90
2022-10-18T04:39:24.299Z,7.80
2022-10-18T04:41:51.068Z,7.90
2022-10-18T04:44:17.816Z,7.80
2022-10-18T04:46:44.578Z,7.70
2022-10-18T04:49:11.324Z,7.70
2022-10-18T04:51:38.091Z,7.80
2022-10-18T04:54:04.833Z,7.80
2022-10-18T04:56:32.578Z,7.80
2022-10-18T04:59:00.003Z,7.90
2022-10-18T05:01:26.990Z,7.80
2022-10-18T05:03:55.257Z,7.70
2022-10-18T05:06:23.193Z,7.60
2022-10-18T05:08:50.174Z,7.60
2022-10-18T05:11:16.923Z,7.70
2022-10-18T05:13:46.043Z,7.70
2022-10-18T05:16:16.149Z,7.70
2022-10-18T05:18:43.375Z,7.60
2022-10-18T06:17:36.319Z,8.00
2022-10-18T06:20:03.636Z,8.10
2022-10-18T06:22:30.429Z,8.20
2022-10-18T06:24:57.415Z,8.20
2022-10-18T06:27:24.288Z,8.30
2022-10-18T06:32:43.068Z,8.30
2022-10-18T07:50:28.564Z,11.50
2022-10-18T07:52:58.496Z,11.60
2022-10-18T07:55:25.642Z,11.70
2022-10-18T07:57:53.658Z,11.70
2022-10-18T08:00:29.270Z,11.90
2022-10-18T08:02:57.667Z,11.90
2022-10-18T08:05:26.975Z,12.20
2022-10-18T08:07:55.118Z,12.40
2022-10-18T08:10:24.539Z,12.50
2022-10-18T08:12:52.251Z,12.60
2022-10-18T08:15:21.832Z,12.60
2022-10-18T08:17:49.270Z,12.60
2022-10-18T08:20:29.919Z,12.80
2022-10-18T08:23:00.460Z,13.00
2022-10-18T08:25:28.762Z,13.10
2022-10-18T08:27:55.822Z,13.20
2022-10-18T08:30:23.681Z,13.30
2022-10-18T08:32:51.722Z,13.40
2022-10-18T08:35:18.574Z,13.40
2022-10-18T08:37:45.510Z,13.60
2022-10-18T08:40:15.725Z,13.80
2022-10-18T08:42:58.181Z,14.00
2022-10-18T08:45:42.009Z,14.10
2022-10-18T08:48:21.931Z,14.20
2022-10-18T08:50:51.033Z,14.40
2022-10-18T08:53:29.031Z,14.50
2022-10-18T08:56:05.176Z,14.70
2022-10-18T08:58:33.692Z,15.00
2022-10-18T09:01:24.984Z,15.10
2022-10-18T09:04:23.627Z,15.30
2022-10-18T09:07:13.192Z,15.40
2022-10-18T09:09:53.477Z,15.60
2022-10-18T09:12:44.123Z,15.90
2022-10-18T09:15:11.449Z,15.90
2022-10-18T09:17:53.504Z,16.00
2022-10-18T09:20:27.172Z,16.10
2022-10-18T09:23:05.825Z,16.20
2022-10-18T09:25:42.706Z,16.30
2022-10-18T09:28:31.232Z,16.60
2022-10-18T09:31:21.821Z,16.50
2022-10-18T09:34:02.944Z,16.70
2022-10-18T09:36:37.139Z,16.70
2022-10-18T09:39:16.629Z,16.60
2022-10-18T09:41:58.080Z,16.70
2022-10-18T09:44:41.723Z,16.80
2022-10-18T09:47:21.746Z,16.60
2022-10-18T09:50:01.597Z,16.80
2022-10-18T09:52:42.515Z,16.90
2022-10-18T09:55:24.078Z,17.00
2022-10-18T09:57:54.780Z,17.30
2022-10-18T10:00:48.381Z,17.30
2022-10-18T10:03:15.900Z,17.50
2022-10-18T10:05:44.415Z,17.40
2022-10-18T10:08:11.335Z,17.70
2022-10-18T10:10:47.485Z,17.70
2022-10-18T10:13:23.160Z,17.70
2022-10-18T10:18:52.494Z,17.70
2022-10-18T10:21:20.801Z,17.80
2022-10-18T10:23:53.138Z,17.60
2022-10-18T10:26:34.615Z,17.60
2022-10-18T10:29:01.751Z,17.50
2022-10-18T10:31:33.527Z,18.00
2022-10-18T10:34:01.773Z,18.00
2022-10-18T10:36:30.073Z,18.10
2022-10-18T10:39:08.129Z,18.20
2022-10-18T10:41:35.271Z,18.10
2022-10-18T10:44:13.746Z,18.20
2022-10-18T10:46:40.740Z,18.30
2022-10-18T10:51:39.268Z,18.10
2022-10-18T10:54:13.568Z,18.30
2022-10-18T10:56:53.769Z,18.20
2022-10-18T10:59:22.635Z,18.40
2022-10-18T11:01:52.401Z,18.70
2022-10-18T11:04:28.719Z,18.40
2022-10-18T11:07:27.540Z,18.20
2022-10-18T11:10:14.380Z,18.50
2022-10-18T11:12:47.715Z,18.90
2022-10-18T11:15:36.676Z,18.80
2022-10-18T11:18:18.780Z,18.70
2022-10-18T11:21:01.178Z,19.10
2022-10-18T11:23:33.893Z,18.90
2022-10-18T11:26:12.836Z,18.90
2022-10-18T11:29:08.790Z,19.00
2022-10-18T11:31:54.158Z,19.30
2022-10-18T11:34:29.921Z,19.20
2022-10-18T11:37:39.228Z,18.90
2022-10-18T11:40:15.469Z,19.10
2022-10-18T11:42:42.249Z,19.20
2022-10-18T11:48:21.240Z,19.60
2022-10-18T11:51:07.933Z,19.40
2022-10-18T11:53:40.699Z,19.20
2022-10-18T11:56:25.267Z,19.20
2022-10-18T11:59:18.380Z,19.40
2022-10-18T12:02:26.796Z,19.60
2022-10-18T12:08:02.054Z,19.80
2022-10-18T12:10:44.482Z,19.70
2022-10-18T12:13:45.449Z,19.90
2022-10-18T12:16:12.838Z,19.90
2022-10-18T12:21:25.731Z,19.60
2022-10-18T12:24:00.763Z,19.40
2022-10-18T12:26:29.780Z,19.80
2022-10-18T12:29:18.393Z,20.10
2022-10-18T12:32:16.301Z,20.30
2022-10-18T12:34:49.134Z,20.10
2022-10-18T12:37:36.263Z,19.70
2022-10-18T12:40:25.479Z,19.80
2022-10-18T12:42:53.944Z,20.00
2022-10-18T12:45:26.849Z,20.00
2022-10-18T12:47:55.172Z,19.70
2022-10-18T12:50:30.160Z,20.00
2022-10-18T12:53:24.115Z,20.30
2022-10-18T12:55:53.699Z,20.50
2022-10-18T12:58:25.592Z,20.60
2022-10-18T13:00:54.216Z,20.60
2022-10-18T13:03:31.134Z,20.70
2022-10-18T13:06:04.165Z,20.80
2022-10-18T13:08:38.436Z,20.90
2022-10-18T13:11:08.293Z,20.80
2022-10-18T13:14:02.599Z,20.90
2022-10-18T13:16:29.322Z,21.00
2022-10-18T13:19:12.063Z,20.90
2022-10-18T13:22:16.870Z,21.10
2022-10-18T13:25:10.979Z,21.00
2022-10-18T13:27:57.637Z,21.00
2022-10-18T13:30:31.847Z,21.00
2022-10-18T13:33:26.421Z,21.00
2022-10-18T13:36:13.320Z,21.00
2022-10-18T13:38:58.307Z,20.90
2022-10-18T13:41:34.536Z,20.90
2022-10-18T13:44:02.660Z,20.90
2022-10-18T13:46:36.824Z,20.70
2022-10-18T13:49:22.199Z,20.70
2022-10-18T13:52:11.406Z,20.50
2022-10-18T13:54:45.052Z,20.50
2022-10-18T13:57:22.910Z,20.70
2022-10-18T14:00:17.075Z,20.70
2022-10-18T14:02:52.010Z,20.30
2022-10-18T14:05:46.982Z,20.10
2022-10-18T14:09:06.335Z,19.90
2022-10-18T14:11:46.270Z,20.00
2022-10-18T14:14:23.132Z,19.90
2022-10-18T14:17:03.200Z,19.80
2022-10-18T14:19:51.942Z,19.80
2022-10-18T14:22:36.410Z,19.70
2022-10-18T14:25:03.263Z,19.70
2022-10-18T14:27:32.980Z,19.60
2022-10-18T14:30:29.575Z,19.50
2022-10-18T14:32:56.422Z,19.40
2022-10-18T14:35:33.962Z,19.40
2022-10-18T14:38:02.205Z,19.20
2022-10-18T14:40:33.890Z,19.00
2022-10-18T14:43:05.303Z,18.90
2022-10-18T14:45:40.396Z,18.90
2022-10-18T14:48:21.094Z,18.80
2022-10-18T14:50:59.295Z,18.60
2022-10-18T14:53:32.649Z,18.50
2022-10-18T14:56:01.000Z,18.40
2022-10-18T14:58:28.291Z,18.30
2022-10-18T15:00:55.536Z,18.30
2022-10-18T15:03:23.420Z,18.30
2022-10-18T15:05:54.146Z,18.20
2022-10-18T15:08:22.114Z,18.10
2022-10-18T15:10:49.469Z,18.00
2022-10-18T15:13:17.489Z,18.00
2022-10-18T15:15:45.290Z,17.90
2022-10-18T15:18:22.310Z,17.90
2022-10-18T15:21:24.444Z,17.80
2022-10-18T15:23:51.439Z,17.60
2022-10-18T15:26:36.472Z,17.50
2022-10-18T15:29:06.133Z,17.10
2022-10-18T15:32:04.599Z,17.10
2022-10-18T15:34:31.473Z,16.90
2022-10-18T15:36:58.390Z,16.80
2022-10-18T15:39:27.574Z,16.70
2022-10-18T15:41:58.790Z,16.60
2022-10-18T15:44:31.896Z,16.20
2022-10-18T15:47:21.803Z,16.10
2022-10-18T15:49:56.654Z,15.90
2022-10-18T15:52:38.466Z,16.00
2022-10-18T15:55:30.277Z,16.10
2022-10-18T15:58:11.209Z,15.50
2022-10-18T16:00:39.052Z,15.30
2022-10-18T16:03:08.679Z,15.40
2022-10-18T16:05:37.356Z,15.50
2022-10-18T16:08:04.766Z,15.00
2022-10-18T16:10:31.580Z,15.00
2022-10-18T16:12:58.304Z,15.00
2022-10-18T16:15:25.110Z,15.00
2022-10-18T16:17:52.418Z,15.10
2022-10-18T16:20:22.260Z,15.10
2022-10-18T16:22:49.113Z,14.70
2022-10-18T16:25:16.176Z,14.60
2022-10-18T16:27:42.967Z,14.70
2022-10-18T16:30:17.716Z,14.70
2022-10-18T16:32:44.455Z,14.40
2022-10-18T16:35:12.505Z,14.40
2022-10-18T16:37:40.006Z,14.30
2022-10-18T16:40:23.313Z,14.00
2022-10-18T16:42:50.132Z,14.00
2022-10-18T16:45:17.099Z,13.80
2022-10-18T16:47:44.375Z,13.90
2022-10-18T16:50:17.894Z,13.80
2022-10-18T16:52:45.043Z,13.50
2022-10-18T16:55:21.020Z,13.60
2022-10-18T16:57:49.004Z,13.80
2022-10-18T17:00:19.514Z,13.50
2022-10-18T17:02:46.755Z,13.40
2022-10-18T17:05:13.624Z,13.60
2022-10-18T17:07:40.433Z,13.60
2022-10-18T17:10:07.923Z,13.40
2022-10-18T17:12:34.794Z,13.50
2022-10-18T17:15:01.780Z,13.50
2022-10-18T17:17:28.559Z,13.20
2022-10-18T17:19:56.040Z,13.30
2022-10-18T17:22:23.214Z,13.40
2022-10-18T17:24:50.134Z,13.50
2022-10-18T17:27:17.622Z,13.60
2022-10-18T17:29:44.471Z,13.50
2022-10-18T17:32:11.239Z,13.00
2022-10-18T17:34:38.256Z,12.90
2022-10-18T17:37:05.541Z,13.10
2022-10-18T17:39:32.892Z,13.00
2022-10-18T17:41:59.936Z,12.90
2022-10-18T17:44:26.740Z,13.00
2022-10-18T17:46:54.032Z,13.20
2022-10-18T17:49:22.136Z,13.20
2022-10-18T17:51:49.111Z,12.90
2022-10-18T17:54:16.192Z,12.80
2022-10-18T17:56:43.156Z,12.70
2022-10-18T17:59:09.950Z,12.80
2022-10-18T18:01:37.008Z,12.90
2022-10-18T18:04:04.054Z,13.00
2022-10-18T18:06:36.379Z,12.90
2022-10-18T18:09:13.137Z,12.80
2022-10-18T18:11:41.342Z,12.80
2022-10-18T18:14:09.622Z,12.70
2022-10-18T18:16:41.570Z,12.80
2022-10-18T18:19:09.843Z,12.90
2022-10-18T18:21:37.790Z,12.80
2022-10-18T18:24:05.056Z,12.80
2022-10-18T18:26:33.067Z,12.70
2022-10-18T18:29:00.563Z,12.90
2022-10-18T18:31:30.782Z,13.00
2022-10-18T18:34:01.277Z,13.00
2022-10-18T18:36:32.558Z,12.90
2022-10-18T18:38:59.510Z,12.90
2022-10-18T18:41:28.448Z,13.00
2022-10-18T18:44:00.596Z,12.90
2022-10-18T18:46:29.775Z,12.70
2022-10-18T18:49:00.035Z,12.80
2022-10-18T18:51:26.976Z,12.90
2022-10-18T18:53:54.494Z,12.90
2022-10-18T18:56:24.716Z,12.80
2022-10-18T18:58:52.764Z,12.80
2022-10-18T19:01:22.559Z,12.40
2022-10-18T19:03:51.880Z,12.20
2022-10-18T19:06:32.994Z,12.10
2022-10-18T19:09:03.249Z,12.30
2022-10-18T19:11:38.774Z,12.10
2022-10-18T19:14:07.669Z,12.10
2022-10-18T19:16:37.893Z,12.10
2022-10-18T19:19:07.457Z,12.10
2022-10-18T19:21:39.941Z,12.00
2022-10-18T19:24:07.418Z,12.20
2022-10-18T19:26:38.671Z,12.20
2022-10-18T19:29:05.807Z,12.20
2022-10-18T19:31:34.154Z,12.00
2022-10-18T19:34:02.494Z,12.10
2022-10-18T19:36:30.197Z,12.10
2022-10-18T19:38:58.158Z,12.10
2022-10-18T19:43:57.743Z,11.90
2022-10-18T19:46:24.692Z,12.00
2022-10-18T19:48:54.038Z,12.10
2022-10-18T19:51:24.036Z,11.90
2022-10-18T19:53:52.173Z,11.80
2022-10-18T19:56:21.702Z,11.80
2022-10-18T19:58:49.587Z,11.80
2022-10-18T20:01:17.409Z,11.90
2022-10-18T20:03:44.615Z,11.60
2022-10-18T20:06:12.043Z,11.80
2022-10-18T20:08:39.303Z,12.00
2022-10-18T20:11:09.571Z,12.10
2022-10-18T20:13:37.030Z,12.00
2022-10-18T20:16:06.982Z,11.70
2022-10-18T20:18:33.811Z,11.80
2022-10-18T20:21:00.586Z,11.70
2022-10-18T20:23:27.376Z,11.50
2022-10-18T20:26:00.819Z,11.50
2022-10-18T20:28:28.572Z,11.40
2022-10-18T20:31:06.418Z,11.50
2022-10-18T20:33:34.282Z,11.30
2022-10-18T20:36:08.078Z,11.40
2022-10-18T20:38:36.835Z,11.60
2022-10-18T20:41:05.843Z,11.60
2022-10-18T20:43:32.995Z,11.30
2022-10-18T20:46:00.679Z,11.20
2022-10-18T20:48:28.508Z,11.40
2022-10-18T20:50:55.392Z,11.40
2022-10-18T20:53:23.017Z,11.10
2022-10-18T20:55:50.361Z,11.30
2022-10-18T20:58:17.327Z,11.50
2022-10-18T21:00:44.099Z,11.40
2022-10-18T21:05:37.685Z,11.10
2022-10-18T21:08:04.570Z,10.90
2022-10-18T21:10:31.373Z,10.80
2022-10-18T21:12:58.087Z,11.00
2022-10-18T21:15:24.875Z,11.20
2022-10-18T21:17:51.857Z,11.30
2022-10-18T21:20:18.984Z,11.10
2022-10-18T21:22:45.831Z,11.00
2022-10-18T21:25:12.630Z,11.00
2022-10-18T21:27:39.683Z,10.80
2022-10-18T21:30:06.872Z,10.90
2022-10-18T21:32:33.928Z,11.00
2022-10-18T21:35:01.051Z,11.10
2022-10-18T21:37:27.926Z,10.90
2022-10-18T21:39:54.826Z,10.90
2022-10-18T21:42:21.563Z,10.80
2022-10-18T21:44:48.355Z,10.90
2022-10-18T21:47:15.608Z,10.90
2022-10-18T21:49:42.459Z,11.00
2022-10-18T21:52:09.287Z,10.80
2022-10-18T21:54:36.058Z,10.70
2022-10-18T21:57:02.808Z,10.80
2022-10-18T21:59:29.677Z,10.90
2022-10-18T22:01:56.417Z,10.70
2022-10-18T22:04:24.677Z,10.70
2022-10-18T22:06:52.221Z,10.50
2022-10-18T22:09:19.378Z,10.50
2022-10-18T22:11:49.659Z,10.70
2022-10-18T22:14:16.611Z,10.60
2022-10-18T22:16:43.449Z,10.50
2022-10-18T22:19:10.226Z,10.70
2022-10-18T22:21:37.055Z,10.60
2022-10-18T22:24:06.392Z,10.70
2022-10-18T22:26:36.010Z,10.70
2022-10-18T22:29:15.144Z,10.50
2022-10-18T22:31:50.835Z,10.70
2022-10-18T22:34:20.511Z,10.80
2022-10-18T22:36:47.337Z,10.80
2022-10-18T22:39:15.629Z,10.60
2022-10-18T22:41:43.147Z,10.60
2022-10-18T22:44:12.499Z,10.70
2022-10-18T22:46:40.263Z,10.60
2022-10-18T22:49:07.552Z,10.60
2022-10-18T22:54:02.555Z,10.40
2022-10-18T22:56:29.317Z,10.60
2022-10-18T22:58:56.176Z,10.50
2022-10-18T23:01:24.098Z,10.60
2022-10-18T23:03:59.044Z,10.60
2022-10-18T23:06:25.855Z,10.40
2022-10-18T23:08:54.171Z,10.50
2022-10-18T23:11:21.424Z,10.50
2022-10-18T23:13:48.496Z,10.40
2022-10-18T23:16:15.639Z,10.50
2022-10-18T23:18:42.642Z,10.40
2022-10-18T23:21:12.189Z,10.50
2022-10-18T23:23:40.949Z,10.40
2022-10-18T23:26:13.512Z,10.40
2022-10-18T23:28:43.169Z,10.30
2022-10-18T23:31:17.965Z,10.50
2022-10-18T23:33:46.823Z,10.20
2022-10-18T23:36:13.976Z,10.50
2022-10-18T23:38:40.830Z,10.60
2022-10-18T23:41:10.114Z,10.70
2022-10-18T23:43:37.191Z,10.70
2022-10-18T23:46:04.771Z,10.90
2022-10-18T23:48:31.879Z,10.90
2022-10-18T23:50:58.704Z,10.80
2022-10-18T23:53:25.599Z,10.90
2022-10-18T23:55:58.181Z,10.60
2022-10-18T23:58:25.707Z,10.60
